createdAt,value
2022-10-02T00:00:50.322Z,0.00
2022-10-02T00:01:50.328Z,0.00
2022-10-02T00:02:50.295Z,0.00
2022-10-02T00:03:50.367Z,0.00
2022-10-02T00:04:50.323Z,0.00
2022-10-02T00:05:50.272Z,0.00
2022-10-02T00:06:50.232Z,0.00
2022-10-02T00:07:50.221Z,0.00
2022-10-02T00:08:50.220Z,0.00
2022-10-02T00:09:50.253Z,0.00
2022-10-02T00:10:50.198Z,0.00
2022-10-02T00:11:50.200Z,0.00
2022-10-02T00:12:50.172Z,0.00
2022-10-02T00:13:50.180Z,0.00
2022-10-02T00:14:50.219Z,0.00
2022-10-02T00:15:50.139Z,0.00
2022-10-02T00:16:50.155Z,0.00
2022-10-02T00:17:50.122Z,0.00
2022-10-02T00:18:50.118Z,0.00
2022-10-02T00:19:50.149Z,0.00
2022-10-02T00:20:50.100Z,0.00
2022-10-02T00:21:50.078Z,0.00
2022-10-02T00:22:50.073Z,0.00
2022-10-02T00:23:50.072Z,0.00
2022-10-02T00:24:50.043Z,0.00
2022-10-02T00:25:50.078Z,0.00
2022-10-02T00:26:50.016Z,0.00
2022-10-02T00:27:50.047Z,0.00
2022-10-02T00:28:49.990Z,0.00
2022-10-02T00:29:50.002Z,0.00
2022-10-02T00:30:50.037Z,0.00
2022-10-02T00:31:50.005Z,0.00
2022-10-02T00:32:49.960Z,0.00
2022-10-02T00:33:49.942Z,0.00
2022-10-02T00:34:49.934Z,0.00
2022-10-02T00:35:49.981Z,0.00
2022-10-02T00:36:49.911Z,0.00
2022-10-02T00:37:49.895Z,0.00
2022-10-02T00:38:49.874Z,0.00
2022-10-02T00:39:49.866Z,0.00
2022-10-02T00:40:49.893Z,0.00
2022-10-02T00:41:49.853Z,0.00
2022-10-02T00:42:49.846Z,0.00
2022-10-02T00:43:49.840Z,0.00
2022-10-02T00:44:49.823Z,0.00
2022-10-02T00:45:49.895Z,0.00
2022-10-02T00:46:49.799Z,0.00
2022-10-02T00:47:49.801Z,0.00
2022-10-02T00:48:49.801Z,0.00
2022-10-02T00:49:49.762Z,0.00
2022-10-02T00:50:49.788Z,0.00
2022-10-02T00:51:49.739Z,0.00
2022-10-02T00:52:49.748Z,0.00
2022-10-02T00:53:49.723Z,0.00
2022-10-02T00:54:49.720Z,0.00
2022-10-02T00:55:49.781Z,0.00
2022-10-02T00:56:49.678Z,0.00
2022-10-02T00:57:49.684Z,0.00
2022-10-02T00:58:49.647Z,0.00
2022-10-02T00:59:49.662Z,0.00
2022-10-02T01:00:49.705Z,0.00
2022-10-02T01:01:49.700Z,0.00
2022-10-02T01:02:49.617Z,0.00
2022-10-02T01:03:49.601Z,0.00
2022-10-02T01:04:49.600Z,0.00
2022-10-02T01:05:49.646Z,0.00
2022-10-02T01:06:49.585Z,0.00
2022-10-02T01:07:49.550Z,0.00
2022-10-02T01:08:49.536Z,0.00
2022-10-02T01:09:49.518Z,0.00
2022-10-02T01:10:49.569Z,0.00
2022-10-02T01:11:49.523Z,0.00
2022-10-02T01:12:49.500Z,0.00
2022-10-02T01:13:49.505Z,0.00
2022-10-02T01:14:49.474Z,0.00
2022-10-02T01:15:49.521Z,0.00
2022-10-02T01:16:49.509Z,0.00
2022-10-02T01:17:49.449Z,0.00
2022-10-02T01:18:49.443Z,0.00
2022-10-02T01:19:49.432Z,0.00
2022-10-02T01:20:49.453Z,0.00
2022-10-02T01:21:49.390Z,0.00
2022-10-02T01:22:49.381Z,0.00
2022-10-02T01:23:49.402Z,0.00
2022-10-02T01:24:49.411Z,0.00
2022-10-02T01:25:49.358Z,0.00
2022-10-02T01:26:49.338Z,0.00
2022-10-02T01:27:49.350Z,0.00
2022-10-02T01:28:49.322Z,0.00
2022-10-02T01:29:49.300Z,0.00
2022-10-02T01:30:49.329Z,0.00
2022-10-02T01:31:49.324Z,0.00
2022-10-02T01:32:49.278Z,0.00
2022-10-02T01:33:49.274Z,0.00
2022-10-02T01:34:49.253Z,0.00
2022-10-02T01:35:50.251Z,0.00
2022-10-02T01:36:49.201Z,0.00
2022-10-02T01:37:49.203Z,0.00
2022-10-02T01:38:49.173Z,0.00
2022-10-02T01:39:49.182Z,0.00
2022-10-02T01:40:49.206Z,0.00
2022-10-02T01:41:49.202Z,0.00
2022-10-02T01:42:49.161Z,0.00
2022-10-02T01:43:49.142Z,0.00
2022-10-02T01:44:49.130Z,0.00
2022-10-02T01:45:49.212Z,0.00
2022-10-02T01:46:49.105Z,0.00
2022-10-02T01:47:49.098Z,0.00
2022-10-02T01:48:49.097Z,0.00
2022-10-02T01:49:49.073Z,0.00
2022-10-02T01:50:49.097Z,0.00
2022-10-02T01:51:49.093Z,0.00
2022-10-02T01:52:49.056Z,0.00
2022-10-02T01:53:49.035Z,0.00
2022-10-02T01:54:49.011Z,0.00
2022-10-02T01:55:49.057Z,0.00
2022-10-02T01:56:48.991Z,0.00
2022-10-02T01:57:48.998Z,0.00
2022-10-02T01:58:48.973Z,0.00
2022-10-02T01:59:48.976Z,0.00
2022-10-02T02:00:49.020Z,0.00
2022-10-02T02:01:49.009Z,0.00
2022-10-02T02:02:48.944Z,0.00
2022-10-02T02:03:48.910Z,0.00
2022-10-02T02:04:48.920Z,0.00
2022-10-02T02:05:48.960Z,0.00
2022-10-02T02:06:48.868Z,0.00
2022-10-02T02:07:48.865Z,0.00
2022-10-02T02:08:48.860Z,0.00
2022-10-02T02:09:48.845Z,0.00
2022-10-02T02:10:48.889Z,0.00
2022-10-02T02:11:48.830Z,0.00
2022-10-02T02:12:48.812Z,0.00
2022-10-02T02:13:48.829Z,0.00
2022-10-02T02:14:48.788Z,0.00
2022-10-02T02:15:48.829Z,0.00
2022-10-02T02:16:48.838Z,0.00
2022-10-02T02:17:48.777Z,0.00
2022-10-02T02:18:48.797Z,0.00
2022-10-02T02:19:48.759Z,0.00
2022-10-02T02:20:48.787Z,0.00
2022-10-02T02:21:48.723Z,0.00
2022-10-02T02:22:48.709Z,0.00
2022-10-02T02:23:48.694Z,0.00
2022-10-02T02:24:48.715Z,0.00
2022-10-02T02:25:48.736Z,0.00
2022-10-02T02:26:48.694Z,0.00
2022-10-02T02:27:48.683Z,0.00
2022-10-02T02:28:48.666Z,0.00
2022-10-02T02:29:48.651Z,0.00
2022-10-02T02:30:48.680Z,0.00
2022-10-02T02:31:48.665Z,0.00
2022-10-02T02:32:48.604Z,0.00
2022-10-02T02:33:48.597Z,0.00
2022-10-02T02:34:48.635Z,0.00
2022-10-02T02:35:48.590Z,0.00
2022-10-02T02:36:48.555Z,0.00
2022-10-02T02:37:48.543Z,0.00
2022-10-02T02:38:48.516Z,0.00
2022-10-02T02:39:48.519Z,0.00
2022-10-02T02:40:48.549Z,0.00
2022-10-02T02:41:48.510Z,0.00
2022-10-02T02:42:48.503Z,0.00
2022-10-02T02:43:48.476Z,0.00
2022-10-02T02:44:48.483Z,0.00
2022-10-02T02:45:48.540Z,0.00
2022-10-02T02:46:48.461Z,0.00
2022-10-02T02:47:48.441Z,0.00
2022-10-02T02:48:48.415Z,0.00
2022-10-02T02:49:48.412Z,0.00
2022-10-02T02:50:48.453Z,0.00
2022-10-02T02:51:48.401Z,0.00
2022-10-02T02:52:48.375Z,0.00
2022-10-02T02:53:48.389Z,0.00
2022-10-02T02:54:48.399Z,0.00
2022-10-02T02:55:48.384Z,0.00
2022-10-02T02:56:48.323Z,0.00
2022-10-02T02:57:48.312Z,0.00
2022-10-02T02:58:48.313Z,0.00
2022-10-02T02:59:48.293Z,0.00
2022-10-02T03:00:48.376Z,0.00
2022-10-02T03:01:48.338Z,0.00
2022-10-02T03:02:48.259Z,0.00
2022-10-02T03:03:48.283Z,0.00
2022-10-02T03:04:48.250Z,0.00
2022-10-02T03:05:48.273Z,0.00
2022-10-02T03:06:48.222Z,0.00
2022-10-02T03:07:48.185Z,0.00
2022-10-02T03:08:48.180Z,0.00
2022-10-02T03:09:48.177Z,0.00
2022-10-02T03:10:48.227Z,0.00
2022-10-02T03:11:48.155Z,0.00
2022-10-02T03:12:48.148Z,0.00
2022-10-02T03:13:48.152Z,0.00
2022-10-02T03:14:48.134Z,0.00
2022-10-02T03:15:48.204Z,0.00
2022-10-02T03:16:48.108Z,0.00
2022-10-02T03:17:48.078Z,0.00
2022-10-02T03:18:48.081Z,0.00
2022-10-02T03:19:48.058Z,0.00
2022-10-02T03:20:48.092Z,0.00
2022-10-02T03:21:48.040Z,0.00
2022-10-02T03:22:48.043Z,0.00
2022-10-02T03:23:48.012Z,0.00
2022-10-02T03:24:48.007Z,0.00
2022-10-02T03:25:48.031Z,0.00
2022-10-02T03:26:47.988Z,0.00
2022-10-02T03:27:48.044Z,0.00
2022-10-02T03:28:56.652Z,0.00
2022-10-02T03:29:48.938Z,0.00
2022-10-02T03:30:47.994Z,0.00
2022-10-02T03:31:47.968Z,0.00
2022-10-02T03:32:47.930Z,0.00
2022-10-02T03:33:47.889Z,0.00
2022-10-02T03:34:47.900Z,0.00
2022-10-02T03:35:47.934Z,0.00
2022-10-02T03:36:47.886Z,0.00
2022-10-02T03:37:47.846Z,0.00
2022-10-02T03:39:00.762Z,0.00
2022-10-02T03:39:48.824Z,0.00
2022-10-02T03:40:47.869Z,0.00
2022-10-02T03:41:47.819Z,0.00
2022-10-02T03:42:47.798Z,0.00
2022-10-02T03:43:47.797Z,0.00
2022-10-02T03:44:47.776Z,0.00
2022-10-02T03:45:51.512Z,0.00
2022-10-02T03:46:47.814Z,0.00
2022-10-02T03:47:47.753Z,0.00
2022-10-02T03:48:47.773Z,0.00
2022-10-02T03:49:47.724Z,0.00
2022-10-02T03:50:47.757Z,0.00
2022-10-02T03:51:47.702Z,0.00
2022-10-02T03:52:47.802Z,0.00
2022-10-02T03:53:47.677Z,0.00
2022-10-02T03:54:47.665Z,0.00
2022-10-02T03:55:47.701Z,0.00
2022-10-02T03:56:47.649Z,0.00
2022-10-02T03:57:47.641Z,0.00
2022-10-02T03:58:47.621Z,0.00
2022-10-02T03:59:47.605Z,0.00
2022-10-02T04:00:47.645Z,0.00
2022-10-02T04:01:49.228Z,0.00
2022-10-02T04:02:47.601Z,0.00
2022-10-02T04:03:47.634Z,0.00
2022-10-02T04:04:47.551Z,0.00
2022-10-02T04:05:47.570Z,0.00
2022-10-02T04:06:47.515Z,0.00
2022-10-02T04:07:52.428Z,0.00
2022-10-02T04:08:48.495Z,0.00
2022-10-02T04:09:47.475Z,0.00
2022-10-02T04:10:47.537Z,0.00
2022-10-02T04:11:47.461Z,0.00
2022-10-02T04:12:47.462Z,0.00
2022-10-02T04:13:47.434Z,0.00
2022-10-02T04:14:47.446Z,0.00
2022-10-02T04:15:47.490Z,0.00
2022-10-02T04:16:47.422Z,0.00
2022-10-02T04:17:47.394Z,0.00
2022-10-02T04:18:47.388Z,0.00
2022-10-02T04:19:47.394Z,0.00
2022-10-02T04:20:47.416Z,0.00
2022-10-02T04:21:47.368Z,0.00
2022-10-02T04:22:47.334Z,0.00
2022-10-02T04:23:47.309Z,0.00
2022-10-02T04:24:47.328Z,0.00
2022-10-02T04:25:47.352Z,0.00
2022-10-02T04:26:47.311Z,0.00
2022-10-02T04:27:47.311Z,0.00
2022-10-02T04:28:47.280Z,0.00
2022-10-02T04:29:47.268Z,0.00
2022-10-02T04:30:47.295Z,4.00
2022-10-02T04:31:47.276Z,4.00
2022-10-02T04:32:47.248Z,0.00
2022-10-02T04:33:47.231Z,4.00
2022-10-02T04:34:47.200Z,4.00
2022-10-02T04:35:47.248Z,4.00
2022-10-02T04:36:47.181Z,8.00
2022-10-02T04:37:47.162Z,8.00
2022-10-02T04:38:47.154Z,12.00
2022-10-02T04:39:47.132Z,12.00
2022-10-02T04:40:47.191Z,16.00
2022-10-02T04:41:47.133Z,20.00
2022-10-02T04:42:47.123Z,28.00
2022-10-02T04:43:47.097Z,36.00
2022-10-02T04:44:47.100Z,44.00
2022-10-02T04:45:47.189Z,44.00
2022-10-02T04:46:47.081Z,36.00
2022-10-02T04:47:47.062Z,24.00
2022-10-02T04:48:47.040Z,20.00
2022-10-02T04:49:47.048Z,20.00
2022-10-02T04:50:47.070Z,24.00
2022-10-02T04:51:46.992Z,28.00
2022-10-02T04:52:47.006Z,40.00
2022-10-02T04:53:46.999Z,56.00
2022-10-02T04:54:46.983Z,64.00
2022-10-02T04:55:47.019Z,64.00
2022-10-02T04:56:46.960Z,60.00
2022-10-02T04:57:46.930Z,60.00
2022-10-02T04:58:46.965Z,60.00
2022-10-02T04:59:46.918Z,56.00
2022-10-02T05:00:46.992Z,52.00
2022-10-02T05:01:46.966Z,48.00
2022-10-02T05:02:46.896Z,48.00
2022-10-02T05:03:46.869Z,64.00
2022-10-02T05:04:46.860Z,92.00
2022-10-02T05:05:46.897Z,140.00
2022-10-02T05:06:46.842Z,220.00
2022-10-02T05:07:46.817Z,320.00
2022-10-02T05:08:46.799Z,412.00
2022-10-02T05:09:46.788Z,496.00
2022-10-02T05:10:46.840Z,564.00
2022-10-02T05:11:46.773Z,616.00
2022-10-02T05:12:46.785Z,652.00
2022-10-02T05:13:46.755Z,680.00
2022-10-02T05:14:46.777Z,704.00
2022-10-02T05:15:46.849Z,724.00
2022-10-02T05:16:46.739Z,740.00
2022-10-02T05:17:46.732Z,764.00
2022-10-02T05:18:46.738Z,776.00
2022-10-02T05:19:46.793Z,804.00
2022-10-02T05:20:46.744Z,852.00
2022-10-02T05:21:46.685Z,924.00
2022-10-02T05:22:46.662Z,996.00
2022-10-02T05:23:46.674Z,1052.00
2022-10-02T05:24:46.645Z,1116.00
2022-10-02T05:25:46.690Z,1156.00
2022-10-02T05:26:46.615Z,1172.00
2022-10-02T05:27:46.656Z,1236.00
2022-10-02T05:28:46.602Z,1300.00
2022-10-02T05:29:46.586Z,1332.00
2022-10-02T05:30:46.616Z,1380.00
2022-10-02T05:31:46.635Z,1512.00
2022-10-02T05:32:46.569Z,1628.00
2022-10-02T05:33:48.500Z,1760.00
2022-10-02T05:34:46.525Z,1904.00
2022-10-02T05:35:46.551Z,2052.00
2022-10-02T05:36:46.506Z,2220.00
2022-10-02T05:37:46.476Z,2392.00
2022-10-02T05:38:46.464Z,2508.00
2022-10-02T05:39:46.461Z,2624.00
2022-10-02T05:40:46.519Z,2780.00
2022-10-02T05:41:46.439Z,2928.00
2022-10-02T05:42:46.469Z,3056.00
2022-10-02T05:43:46.418Z,3228.00
2022-10-02T05:44:46.434Z,3612.00
2022-10-02T05:45:46.542Z,4156.00
2022-10-02T05:46:46.433Z,4716.00
2022-10-02T05:47:46.381Z,4980.00
2022-10-02T05:48:46.370Z,4964.00
2022-10-02T05:49:46.371Z,4972.00
2022-10-02T05:50:46.412Z,4996.00
2022-10-02T05:51:46.322Z,5048.00
2022-10-02T05:52:46.344Z,5096.00
2022-10-02T05:53:46.303Z,4784.00
2022-10-02T05:54:46.314Z,4496.00
2022-10-02T05:55:46.342Z,4520.00
2022-10-02T05:56:46.281Z,4672.00
2022-10-02T05:57:46.272Z,4720.00
2022-10-02T05:58:46.253Z,4560.00
2022-10-02T05:59:46.263Z,4152.00
2022-10-02T06:00:46.351Z,3788.00
2022-10-02T06:01:46.287Z,3576.00
2022-10-02T06:02:46.211Z,3372.00
2022-10-02T06:03:46.213Z,3348.00
2022-10-02T06:04:46.237Z,3460.00
2022-10-02T06:05:46.224Z,3812.00
2022-10-02T06:06:46.187Z,4404.00
2022-10-02T06:07:46.140Z,4940.00
2022-10-02T06:08:46.127Z,5104.00
2022-10-02T06:09:46.111Z,5228.00
2022-10-02T06:10:46.190Z,5740.00
2022-10-02T06:11:46.101Z,5848.00
2022-10-02T06:12:46.108Z,5932.00
2022-10-02T06:13:46.128Z,6264.00
2022-10-02T06:14:49.913Z,6996.00
2022-10-02T06:15:46.112Z,7516.00
2022-10-02T06:16:46.093Z,7596.00
2022-10-02T06:17:46.017Z,7420.00
2022-10-02T06:18:46.024Z,7044.00
2022-10-02T06:19:46.011Z,6736.00
2022-10-02T06:20:46.064Z,6240.00
2022-10-02T06:21:45.999Z,5520.00
2022-10-02T06:22:45.979Z,4804.00
2022-10-02T06:23:45.998Z,4336.00
2022-10-02T06:24:45.964Z,4260.00
2022-10-02T06:25:45.973Z,4396.00
2022-10-02T06:26:45.946Z,4576.00
2022-10-02T06:27:45.953Z,4764.00
2022-10-02T06:28:45.932Z,4920.00
2022-10-02T06:29:45.902Z,5040.00
2022-10-02T06:30:45.946Z,5100.00
2022-10-02T06:31:45.956Z,5132.00
2022-10-02T06:32:45.859Z,5200.00
2022-10-02T06:33:45.860Z,5340.00
2022-10-02T06:34:48.221Z,5364.00
2022-10-02T06:35:45.879Z,5400.00
2022-10-02T06:36:45.820Z,5292.00
2022-10-02T06:37:45.796Z,5504.00
2022-10-02T06:38:45.801Z,6016.00
2022-10-02T06:39:45.779Z,5964.00
2022-10-02T06:40:45.787Z,6116.00
2022-10-02T06:41:45.809Z,6348.00
2022-10-02T06:42:45.769Z,6276.00
2022-10-02T06:43:45.738Z,6192.00
2022-10-02T06:44:45.744Z,6212.00
2022-10-02T06:45:45.762Z,6268.00
2022-10-02T06:46:49.409Z,6260.00
2022-10-02T06:47:46.704Z,6288.00
2022-10-02T06:48:45.689Z,6340.00
2022-10-02T06:49:45.722Z,6396.00
2022-10-02T06:50:45.671Z,6484.00
2022-10-02T06:51:45.704Z,6564.00
2022-10-02T06:52:45.627Z,6656.00
2022-10-02T06:53:45.633Z,6740.00
2022-10-02T06:54:45.625Z,6816.00
2022-10-02T06:55:45.601Z,6904.00
2022-10-02T06:56:45.639Z,6992.00
2022-10-02T06:57:45.593Z,7124.00
2022-10-02T06:58:45.583Z,7268.00
2022-10-02T06:59:45.559Z,7400.00
2022-10-02T07:00:45.677Z,7524.00
2022-10-02T07:01:45.629Z,7664.00
2022-10-02T07:02:45.535Z,7872.00
2022-10-02T07:03:45.527Z,8124.00
2022-10-02T07:04:45.517Z,8568.00
2022-10-02T07:05:45.492Z,9476.00
2022-10-02T07:06:45.554Z,13276.00
2022-10-02T07:07:45.463Z,20800.00
2022-10-02T07:08:45.457Z,26176.00
2022-10-02T07:09:45.427Z,26816.00
2022-10-02T07:10:45.425Z,25120.00
2022-10-02T07:11:45.482Z,25056.00
2022-10-02T07:12:45.431Z,25376.00
2022-10-02T07:13:45.403Z,25184.00
2022-10-02T07:14:45.388Z,25440.00
2022-10-02T07:15:45.401Z,27648.00
2022-10-02T07:16:45.474Z,27104.00
2022-10-02T07:17:45.379Z,26688.00
2022-10-02T07:18:45.352Z,27904.00
2022-10-02T07:19:45.354Z,27776.00
2022-10-02T07:20:45.306Z,26528.00
2022-10-02T07:21:45.380Z,17632.00
2022-10-02T07:22:45.958Z,29184.00
2022-10-02T07:23:45.356Z,29056.00
2022-10-02T07:24:45.289Z,28192.00
2022-10-02T07:25:45.280Z,26880.00
2022-10-02T07:26:45.294Z,25632.00
2022-10-02T07:27:45.321Z,27296.00
2022-10-02T07:28:45.220Z,28832.00
2022-10-02T07:29:45.225Z,27584.00
2022-10-02T07:30:45.203Z,26816.00
2022-10-02T07:31:45.329Z,27808.00
2022-10-02T07:32:45.172Z,29344.00
2022-10-02T07:33:45.186Z,29472.00
2022-10-02T07:34:45.179Z,30720.00
2022-10-02T07:35:45.177Z,31744.00
2022-10-02T07:36:45.179Z,32192.00
2022-10-02T07:37:45.130Z,32256.00
2022-10-02T07:38:45.105Z,33248.00
2022-10-02T07:39:45.090Z,32768.00
2022-10-02T07:40:45.088Z,31456.00
2022-10-02T07:41:45.164Z,30336.00
2022-10-02T07:42:45.101Z,29760.00
2022-10-02T07:43:45.075Z,28672.00
2022-10-02T07:44:45.054Z,27296.00
2022-10-02T07:45:45.121Z,26496.00
2022-10-02T07:46:45.102Z,25600.00
2022-10-02T07:47:45.032Z,26112.00
2022-10-02T07:48:45.001Z,26592.00
2022-10-02T07:49:45.002Z,27008.00
2022-10-02T07:50:44.999Z,28064.00
2022-10-02T07:51:45.012Z,29376.00
2022-10-02T07:52:44.973Z,30368.00
2022-10-02T07:53:44.946Z,30976.00
2022-10-02T07:54:44.941Z,30560.00
2022-10-02T07:55:44.932Z,31680.00
2022-10-02T07:56:44.932Z,32288.00
2022-10-02T07:57:44.914Z,32256.00
2022-10-02T07:58:44.894Z,32864.00
2022-10-02T07:59:44.889Z,33184.00
2022-10-02T08:00:44.875Z,29696.00
2022-10-02T08:01:44.949Z,32736.00
2022-10-02T08:02:44.853Z,31712.00
2022-10-02T08:03:44.869Z,31360.00
2022-10-02T08:04:44.820Z,32480.00
2022-10-02T08:05:44.804Z,33248.00
2022-10-02T08:06:44.855Z,33472.00
2022-10-02T08:07:44.806Z,34112.00
2022-10-02T08:08:44.777Z,35104.00
2022-10-02T08:09:44.768Z,24064.00
2022-10-02T08:10:44.742Z,17856.00
2022-10-02T08:11:49.218Z,15632.00
2022-10-02T08:12:44.742Z,12248.00
2022-10-02T08:13:44.725Z,12940.00
2022-10-02T08:14:44.719Z,18848.00
2022-10-02T08:15:44.710Z,38048.00
2022-10-02T08:16:44.798Z,36672.00
2022-10-02T08:17:44.694Z,32768.00
2022-10-02T08:18:44.674Z,31168.00
2022-10-02T08:19:44.697Z,34336.00
2022-10-02T08:20:44.674Z,26080.00
2022-10-02T08:21:44.675Z,41024.00
2022-10-02T08:22:44.627Z,38016.00
2022-10-02T08:23:44.598Z,33536.00
2022-10-02T08:24:44.602Z,41632.00
2022-10-02T08:25:44.597Z,26912.00
2022-10-02T08:26:44.620Z,23424.00
2022-10-02T08:27:44.582Z,20352.00
2022-10-02T08:28:44.541Z,18688.00
2022-10-02T08:29:44.554Z,18816.00
2022-10-02T08:30:44.529Z,20032.00
2022-10-02T08:31:44.583Z,21216.00
2022-10-02T08:32:44.498Z,22112.00
2022-10-02T08:33:44.504Z,21632.00
2022-10-02T08:34:44.484Z,20384.00
2022-10-02T08:35:44.504Z,20000.00
2022-10-02T08:36:44.517Z,20736.00
2022-10-02T08:37:44.442Z,21216.00
2022-10-02T08:38:44.422Z,21344.00
2022-10-02T08:39:44.419Z,21536.00
2022-10-02T08:40:44.400Z,21824.00
2022-10-02T08:41:44.461Z,22080.00
2022-10-02T08:42:44.411Z,22784.00
2022-10-02T08:43:44.394Z,24160.00
2022-10-02T08:44:44.367Z,24928.00
2022-10-02T08:45:44.395Z,24768.00
2022-10-02T08:46:44.400Z,24320.00
2022-10-02T08:47:44.351Z,24192.00
2022-10-02T08:48:44.321Z,24032.00
2022-10-02T08:49:44.341Z,24704.00
2022-10-02T08:50:44.320Z,26432.00
2022-10-02T08:51:44.344Z,42176.00
2022-10-02T08:52:44.283Z,41312.00
2022-10-02T08:53:44.264Z,56000.00
2022-10-02T08:54:44.269Z,35840.00
2022-10-02T08:55:44.246Z,29760.00
2022-10-02T08:56:44.287Z,31552.00
2022-10-02T08:57:44.262Z,28256.00
2022-10-02T08:58:44.216Z,25632.00
2022-10-02T08:59:44.228Z,23584.00
2022-10-02T09:00:44.233Z,23328.00
2022-10-02T09:01:44.270Z,30752.00
2022-10-02T09:02:44.158Z,29888.00
2022-10-02T09:03:44.179Z,46016.00
2022-10-02T09:04:44.132Z,48896.00
2022-10-02T09:05:44.145Z,39616.00
2022-10-02T09:06:44.177Z,35520.00
2022-10-02T09:07:44.122Z,34880.00
2022-10-02T09:08:44.079Z,29088.00
2022-10-02T09:09:44.077Z,23488.00
2022-10-02T09:10:44.080Z,21792.00
2022-10-02T09:11:44.120Z,19840.00
2022-10-02T09:12:44.031Z,21024.00
2022-10-02T09:13:44.049Z,23936.00
2022-10-02T09:14:44.054Z,39808.00
2022-10-02T09:15:44.023Z,44736.00
2022-10-02T09:16:44.109Z,44544.00
2022-10-02T09:17:44.019Z,39776.00
2022-10-02T09:18:43.980Z,34176.00
2022-10-02T09:19:43.986Z,20352.00
2022-10-02T09:20:43.961Z,16692.00
2022-10-02T09:21:43.962Z,17180.00
2022-10-02T09:22:43.993Z,23424.00
2022-10-02T09:23:43.921Z,31936.00
2022-10-02T09:24:43.927Z,55104.00
2022-10-02T09:25:43.904Z,28128.00
2022-10-02T09:26:43.894Z,30016.00
2022-10-02T09:27:43.944Z,33984.00
2022-10-02T09:28:43.892Z,29280.00
2022-10-02T09:29:43.871Z,20352.00
2022-10-02T09:30:43.859Z,17856.00
2022-10-02T09:31:43.871Z,19040.00
2022-10-02T09:32:43.877Z,21280.00
2022-10-02T09:33:43.829Z,24320.00
2022-10-02T09:34:43.800Z,24704.00
2022-10-02T09:35:43.782Z,21792.00
2022-10-02T09:36:43.778Z,22432.00
2022-10-02T09:37:43.817Z,23840.00
2022-10-02T09:38:43.743Z,28224.00
2022-10-02T09:39:43.734Z,31808.00
2022-10-02T09:40:43.728Z,32320.00
2022-10-02T09:41:43.733Z,31232.00
2022-10-02T09:42:43.793Z,27808.00
2022-10-02T09:43:43.688Z,24576.00
2022-10-02T09:44:43.693Z,25216.00
2022-10-02T09:45:43.713Z,32256.00
2022-10-02T09:46:43.668Z,38528.00
2022-10-02T09:47:43.685Z,37696.00
2022-10-02T09:48:43.649Z,55680.00
2022-10-02T09:49:43.647Z,53728.00
2022-10-02T09:50:43.614Z,37024.00
2022-10-02T09:51:43.604Z,51744.00
2022-10-02T09:52:43.641Z,40480.00
2022-10-02T09:53:43.579Z,37600.00
2022-10-02T09:54:43.583Z,37344.00
2022-10-02T09:55:43.563Z,39488.00
2022-10-02T09:56:43.561Z,40544.00
2022-10-02T09:57:43.606Z,37664.00
2022-10-02T09:58:43.543Z,40128.00
2022-10-02T09:59:43.525Z,37088.00
2022-10-02T10:00:43.540Z,39648.00
2022-10-02T10:01:43.503Z,37728.00
2022-10-02T10:02:43.637Z,30976.00
2022-10-02T10:03:43.496Z,28640.00
2022-10-02T10:05:04.431Z,27072.00
2022-10-02T10:05:44.462Z,26560.00
2022-10-02T10:06:43.434Z,24864.00
2022-10-02T10:07:43.473Z,24512.00
2022-10-02T10:08:43.401Z,22240.00
2022-10-02T10:09:43.397Z,20000.00
2022-10-02T10:10:43.376Z,19488.00
2022-10-02T10:11:43.399Z,28000.00
2022-10-02T10:12:43.418Z,22336.00
2022-10-02T10:13:43.373Z,17664.00
2022-10-02T10:14:43.365Z,19392.00
2022-10-02T10:15:43.354Z,20704.00
2022-10-02T10:16:43.387Z,22144.00
2022-10-02T10:17:43.368Z,26048.00
2022-10-02T10:18:43.297Z,23328.00
2022-10-02T10:19:43.307Z,17472.00
2022-10-02T10:20:43.289Z,19008.00
2022-10-02T10:21:43.289Z,20608.00
2022-10-02T10:22:43.300Z,25088.00
2022-10-02T10:23:43.248Z,20960.00
2022-10-02T10:24:43.247Z,19328.00
2022-10-02T10:25:43.242Z,26048.00
2022-10-02T10:26:43.214Z,17952.00
2022-10-02T10:27:43.263Z,19424.00
2022-10-02T10:28:43.240Z,22240.00
2022-10-02T10:29:43.192Z,16744.00
2022-10-02T10:30:43.172Z,18400.00
2022-10-02T10:31:43.261Z,20224.00
2022-10-02T10:32:43.194Z,20832.00
2022-10-02T10:33:43.157Z,19776.00
2022-10-02T10:34:43.122Z,27360.00
2022-10-02T10:35:43.135Z,51360.00
2022-10-02T10:36:46.627Z,41728.00
2022-10-02T10:37:43.143Z,100064.00
2022-10-02T10:38:43.062Z,109696.00
2022-10-02T10:39:43.067Z,127872.00
2022-10-02T10:40:43.037Z,133632.00
2022-10-02T10:41:43.034Z,91584.00
2022-10-02T10:43:05.954Z,126272.00
2022-10-02T10:43:44.010Z,72640.00
2022-10-02T10:44:43.012Z,32672.00
2022-10-02T10:45:43.011Z,36672.00
2022-10-02T10:46:42.983Z,38560.00
2022-10-02T10:47:43.031Z,37056.00
2022-10-02T10:48:45.912Z,39520.00
2022-10-02T10:49:43.963Z,49984.00
2022-10-02T10:50:42.941Z,38688.00
2022-10-02T10:51:42.923Z,37472.00
2022-10-02T10:52:42.979Z,35744.00
2022-10-02T10:53:42.916Z,32608.00
2022-10-02T10:54:42.938Z,30592.00
2022-10-02T10:55:42.891Z,28288.00
2022-10-02T10:56:42.888Z,25920.00
2022-10-02T10:57:42.913Z,25600.00
2022-10-02T10:58:42.864Z,23776.00
2022-10-02T10:59:42.860Z,23936.00
2022-10-02T11:00:42.901Z,25984.00
2022-10-02T11:01:42.872Z,30016.00
2022-10-02T11:02:42.940Z,46528.00
2022-10-02T11:03:42.816Z,21440.00
2022-10-02T11:04:42.781Z,20448.00
2022-10-02T11:05:42.782Z,27008.00
2022-10-02T11:06:45.971Z,23584.00
2022-10-02T11:07:42.799Z,21312.00
2022-10-02T11:08:42.724Z,35520.00
2022-10-02T11:09:42.716Z,21984.00
2022-10-02T11:10:42.705Z,22624.00
2022-10-02T11:11:42.703Z,22112.00
2022-10-02T11:12:42.742Z,37408.00
2022-10-02T11:13:42.714Z,20128.00
2022-10-02T11:14:42.697Z,23232.00
2022-10-02T11:15:42.661Z,40576.00
2022-10-02T11:16:42.734Z,17348.00
2022-10-02T11:17:42.676Z,30080.00
2022-10-02T11:18:42.651Z,42816.00
2022-10-02T11:19:42.620Z,42176.00
2022-10-02T11:20:42.606Z,42016.00
2022-10-02T11:21:42.593Z,42112.00
2022-10-02T11:22:42.645Z,42368.00
2022-10-02T11:23:42.585Z,42656.00
2022-10-02T11:24:42.567Z,42624.00
2022-10-02T11:25:42.581Z,21376.00
2022-10-02T11:26:42.551Z,26016.00
2022-10-02T11:27:42.578Z,45568.00
2022-10-02T11:28:42.526Z,49216.00
2022-10-02T11:29:42.509Z,24928.00
2022-10-02T11:30:42.502Z,48000.00
2022-10-02T11:31:42.546Z,21856.00
2022-10-02T11:32:42.516Z,35904.00
2022-10-02T11:33:42.465Z,30816.00
2022-10-02T11:34:42.479Z,26144.00
2022-10-02T11:35:42.445Z,46368.00
2022-10-02T11:36:42.460Z,47328.00
2022-10-02T11:37:42.460Z,46240.00
2022-10-02T11:38:42.391Z,45792.00
2022-10-02T11:39:42.388Z,47296.00
2022-10-02T11:40:42.376Z,23200.00
2022-10-02T11:41:42.397Z,23136.00
2022-10-02T11:42:42.437Z,22688.00
2022-10-02T11:43:44.173Z,19968.00
2022-10-02T11:44:42.342Z,16672.00
2022-10-02T11:45:42.370Z,14040.00
2022-10-02T11:46:42.326Z,12788.00
2022-10-02T11:47:42.357Z,11692.00
2022-10-02T11:48:42.296Z,10024.00
2022-10-02T11:49:42.293Z,9040.00
2022-10-02T11:50:42.276Z,8360.00
2022-10-02T11:51:42.264Z,8036.00
2022-10-02T11:52:47.346Z,8332.00
2022-10-02T11:53:43.271Z,9168.00
2022-10-02T11:54:42.224Z,10072.00
2022-10-02T11:55:42.223Z,11884.00
2022-10-02T11:56:42.202Z,14516.00
2022-10-02T11:57:42.238Z,15240.00
2022-10-02T11:58:42.172Z,14956.00
2022-10-02T11:59:42.217Z,12936.00
2022-10-02T12:00:42.176Z,12504.00
2022-10-02T12:01:42.141Z,14488.00
2022-10-02T12:02:42.235Z,17220.00
2022-10-02T12:03:42.126Z,18560.00
2022-10-02T12:04:42.121Z,17632.00
2022-10-02T12:05:42.106Z,15932.00
2022-10-02T12:06:42.125Z,14312.00
2022-10-02T12:07:42.156Z,13344.00
2022-10-02T12:08:42.057Z,13464.00
2022-10-02T12:09:42.077Z,14808.00
2022-10-02T12:10:42.051Z,15148.00
2022-10-02T12:11:42.058Z,46592.00
2022-10-02T12:12:42.094Z,26400.00
2022-10-02T12:13:42.029Z,43968.00
2022-10-02T12:14:42.006Z,13520.00
2022-10-02T12:15:42.025Z,17856.00
2022-10-02T12:16:42.065Z,43072.00
2022-10-02T12:17:42.009Z,43136.00
2022-10-02T12:18:41.967Z,41888.00
2022-10-02T12:19:41.954Z,42112.00
2022-10-02T12:20:41.941Z,41312.00
2022-10-02T12:21:41.928Z,41568.00
2022-10-02T12:22:41.977Z,39872.00
2022-10-02T12:23:41.915Z,38688.00